createdAt,value
2019-05-28T00:01:22.656Z,12.40
2019-05-28T00:05:31.655Z,12.30
2019-05-28T00:09:40.478Z,12.20
2019-05-28T00:13:49.640Z,12.10
2019-05-28T00:17:58.528Z,11.90
2019-05-28T00:22:07.592Z,11.70
2019-05-28T00:26:16.522Z,11.70
2019-05-28T00:30:25.465Z,11.70
2019-05-28T00:34:34.268Z,11.60
2019-05-28T00:38:43.087Z,11.60
2019-05-28T00:42:51.992Z,11.60
2019-05-28T00:47:00.934Z,11.70
2019-05-28T00:51:10.276Z,11.70
2019-05-28T00:55:19.233Z,11.60
2019-05-28T00:59:29.210Z,11.50
2019-05-28T01:03:37.997Z,11.50
2019-05-28T01:07:46.836Z,11.50
2019-05-28T01:11:55.656Z,11.40
2019-05-28T01:16:04.665Z,11.30
2019-05-28T01:20:14.072Z,11.20
2019-05-28T01:24:22.880Z,11.20
2019-05-28T01:28:31.789Z,11.20
2019-05-28T01:32:40.632Z,11.20
2019-05-28T01:36:49.461Z,11.20
2019-05-28T01:40:58.284Z,11.20
2019-05-28T01:45:08.482Z,11.30
2019-05-28T01:49:17.317Z,11.30
2019-05-28T01:53:26.297Z,11.30
2019-05-28T01:57:35.212Z,11.30
2019-05-28T02:01:44.116Z,11.30
2019-05-28T02:05:53.104Z,11.30
2019-05-28T02:10:01.923Z,11.30
2019-05-28T02:14:10.732Z,11.30
2019-05-28T02:18:19.629Z,11.40
2019-05-28T02:22:28.523Z,11.40
2019-05-28T02:26:37.347Z,11.40
2019-05-28T02:30:46.244Z,11.40
2019-05-28T02:34:55.139Z,11.50
2019-05-28T02:39:06.400Z,11.50
2019-05-28T02:43:15.315Z,11.40
2019-05-28T02:47:24.152Z,11.40
2019-05-28T02:51:33.125Z,11.40
2019-05-28T02:55:45.041Z,11.40
2019-05-28T02:59:55.703Z,11.40
2019-05-28T03:04:04.767Z,11.40
2019-05-28T03:08:14.289Z,11.40
2019-05-28T03:12:23.203Z,11.40
2019-05-28T03:16:35.105Z,11.40
2019-05-28T03:20:45.068Z,11.40
2019-05-28T03:24:54.159Z,11.30
2019-05-28T03:29:03.132Z,11.40
2019-05-28T03:33:11.959Z,11.30
2019-05-28T03:37:21.619Z,11.30
2019-05-28T03:41:30.443Z,11.40
2019-05-28T03:45:39.448Z,11.40
2019-05-28T03:49:48.343Z,11.40
2019-05-28T03:53:57.176Z,11.50
2019-05-28T03:58:06.140Z,11.50
2019-05-28T04:02:23.460Z,11.60
2019-05-28T04:06:25.625Z,11.60
2019-05-28T04:10:34.511Z,11.60
2019-05-28T04:14:43.331Z,11.70
2019-05-28T04:18:52.238Z,11.60
2019-05-28T04:23:01.117Z,11.70
2019-05-28T04:27:09.982Z,11.70
2019-05-28T04:31:19.154Z,11.70
2019-05-28T04:35:27.960Z,11.70
2019-05-28T04:39:37.080Z,11.80
2019-05-28T04:43:45.896Z,11.80
2019-05-28T04:47:54.799Z,12.00
2019-05-28T04:52:03.746Z,12.00
2019-05-28T04:56:12.611Z,12.10
2019-05-28T05:00:21.569Z,12.10
2019-05-28T05:04:30.551Z,12.10
2019-05-28T05:08:39.469Z,12.10
2019-05-28T05:12:48.303Z,12.10
2019-05-28T05:16:57.218Z,12.20
2019-05-28T05:21:06.730Z,12.30
2019-05-28T05:25:16.044Z,12.30
2019-05-28T05:29:24.844Z,12.30
2019-05-28T05:33:33.749Z,12.30
2019-05-28T05:37:42.658Z,12.30
2019-05-28T05:41:51.644Z,12.40
2019-05-28T05:46:00.584Z,12.50
2019-05-28T05:50:10.737Z,12.70
2019-05-28T05:54:19.708Z,12.80
2019-05-28T05:58:28.544Z,12.80
2019-05-28T06:02:37.374Z,13.00
2019-05-28T06:06:46.308Z,13.00
2019-05-28T06:10:55.224Z,13.30
2019-05-28T06:15:04.542Z,13.60
2019-05-28T06:19:13.429Z,13.70
2019-05-28T06:23:22.339Z,13.70
2019-05-28T06:27:31.304Z,13.50
2019-05-28T06:31:40.196Z,13.50
2019-05-28T06:35:49.171Z,13.60
2019-05-28T06:39:58.079Z,13.60
2019-05-28T06:44:07.179Z,13.60
2019-05-28T06:48:16.011Z,13.70
2019-05-28T06:52:24.903Z,13.90
2019-05-28T06:56:33.837Z,14.00
2019-05-28T07:00:42.895Z,14.20
2019-05-28T07:04:51.723Z,14.50
2019-05-28T07:09:00.635Z,14.70
2019-05-28T07:13:09.473Z,15.30
2019-05-28T07:17:18.380Z,15.70
2019-05-28T07:21:27.364Z,15.70
2019-05-28T07:25:36.257Z,15.60
2019-05-28T07:29:45.223Z,15.80
2019-05-28T07:33:54.040Z,15.90
2019-05-28T07:38:02.955Z,16.10
2019-05-28T07:42:11.823Z,16.30
2019-05-28T07:46:20.651Z,16.20
2019-05-28T07:50:29.616Z,16.20
2019-05-28T07:54:39.456Z,16.40
2019-05-28T07:58:51.224Z,16.90
2019-05-28T08:03:01.517Z,17.40
2019-05-28T08:07:10.594Z,17.70
2019-05-28T08:11:19.592Z,17.60
2019-05-28T08:15:28.855Z,17.70
2019-05-28T08:19:37.792Z,17.70
2019-05-28T08:23:46.709Z,18.30
2019-05-28T08:27:55.629Z,18.50
2019-05-28T08:32:04.615Z,18.20
2019-05-28T08:36:13.639Z,18.40
2019-05-28T08:40:22.625Z,18.30
2019-05-28T08:44:31.601Z,18.10
2019-05-28T08:48:40.495Z,18.30
2019-05-28T08:52:49.518Z,18.70
2019-05-28T08:56:58.563Z,18.60
2019-05-28T09:01:07.386Z,18.50
2019-05-28T09:05:25.982Z,18.60
2019-05-28T09:09:27.433Z,18.60
2019-05-28T09:13:36.393Z,19.30
2019-05-28T09:17:45.223Z,19.70
2019-05-28T09:21:54.145Z,19.30
2019-05-28T09:26:03.092Z,18.50
2019-05-28T09:30:13.903Z,18.20
2019-05-28T09:34:22.905Z,18.70
2019-05-28T09:38:31.736Z,19.50
2019-05-28T09:42:40.707Z,19.80
2019-05-28T09:46:49.578Z,19.50
2019-05-28T09:50:58.472Z,19.50
2019-05-28T09:55:08.381Z,19.30
2019-05-28T09:59:17.284Z,19.00
2019-05-28T10:03:26.489Z,18.90
2019-05-28T10:07:35.396Z,18.90
2019-05-28T10:11:44.361Z,18.70
2019-05-28T10:15:53.261Z,18.30
2019-05-28T10:20:02.304Z,18.40
2019-05-28T10:24:11.225Z,18.60
2019-05-28T10:28:20.233Z,18.90
2019-05-28T10:32:29.162Z,19.10
2019-05-28T10:36:38.247Z,19.20
2019-05-28T10:40:47.287Z,19.50
2019-05-28T10:44:56.187Z,19.50
2019-05-28T10:49:05.387Z,19.40
2019-05-28T10:53:14.327Z,18.80
2019-05-28T10:57:23.184Z,17.90
2019-05-28T11:01:32.162Z,17.10
2019-05-28T11:05:41.260Z,16.30
2019-05-28T11:09:50.120Z,15.80
2019-05-28T11:13:59.303Z,15.50
2019-05-28T11:18:08.208Z,15.30
2019-05-28T11:22:17.115Z,15.20
2019-05-28T11:26:25.940Z,15.00
2019-05-28T11:30:34.936Z,14.90
2019-05-28T11:34:43.761Z,14.70
2019-05-28T11:38:52.753Z,14.30
2019-05-28T11:43:01.579Z,14.10
2019-05-28T11:47:10.538Z,14.20
2019-05-28T11:51:19.713Z,14.40
2019-05-28T11:55:28.700Z,14.50
2019-05-28T11:59:37.678Z,15.00
2019-05-28T12:03:46.737Z,15.60
2019-05-28T12:07:55.669Z,16.40
2019-05-28T12:12:04.640Z,17.10
2019-05-28T12:16:13.608Z,18.00
2019-05-28T12:20:22.888Z,18.60
2019-05-28T12:24:31.784Z,19.00
2019-05-28T12:28:40.954Z,18.80
2019-05-28T12:32:49.843Z,18.90
2019-05-28T12:36:58.671Z,19.10
2019-05-28T12:41:07.671Z,19.30
2019-05-28T12:45:17.147Z,19.50
2019-05-28T12:49:25.963Z,19.40
2019-05-28T12:53:49.501Z,19.30
2019-05-28T12:57:45.420Z,19.00
2019-05-28T13:01:54.317Z,18.30
2019-05-28T13:06:03.612Z,17.70
2019-05-28T13:10:13.177Z,18.10
2019-05-28T13:14:22.176Z,19.00
2019-05-28T13:18:31.127Z,19.20
2019-05-28T13:22:40.036Z,18.60
2019-05-28T13:26:48.954Z,18.40
2019-05-28T13:30:57.863Z,18.40
2019-05-28T13:35:07.144Z,18.50
2019-05-28T13:39:16.056Z,18.60
2019-05-28T13:43:24.969Z,18.50
2019-05-28T13:47:34.420Z,18.40
2019-05-28T13:51:43.429Z,18.10
2019-05-28T13:55:52.325Z,18.10
2019-05-28T14:00:01.558Z,18.20
2019-05-28T14:04:10.551Z,18.30
2019-05-28T14:08:19.565Z,18.50
2019-05-28T14:12:28.562Z,18.50
2019-05-28T14:16:37.463Z,18.60
2019-05-28T14:20:46.383Z,18.30
2019-05-28T14:24:55.313Z,18.30
2019-05-28T14:29:04.629Z,18.70
2019-05-28T14:33:13.604Z,19.00
2019-05-28T14:37:22.433Z,18.70
2019-05-28T14:41:31.284Z,18.30
2019-05-28T14:45:40.143Z,17.80
2019-05-28T14:49:49.100Z,17.50
2019-05-28T14:53:58.326Z,17.00
2019-05-28T14:58:07.491Z,16.60
2019-05-28T15:02:16.415Z,16.10
2019-05-28T15:06:25.252Z,15.60
2019-05-28T15:10:34.137Z,15.30
2019-05-28T15:14:43.139Z,15.10
2019-05-28T15:18:51.996Z,15.20
2019-05-28T15:23:00.919Z,15.50
2019-05-28T15:27:09.892Z,16.20
2019-05-28T15:31:18.897Z,17.00
2019-05-28T15:35:27.865Z,17.70
2019-05-28T15:39:40.307Z,18.50
2019-05-28T15:43:47.267Z,18.80
2019-05-28T15:47:56.189Z,18.40
2019-05-28T15:52:07.938Z,17.60
2019-05-28T15:56:15.846Z,16.80
2019-05-28T16:00:24.932Z,16.30
2019-05-28T16:04:33.919Z,15.70
2019-05-28T16:08:42.826Z,15.30
2019-05-28T16:12:52.338Z,15.20
2019-05-28T16:17:01.293Z,15.40
2019-05-28T16:21:10.132Z,15.90
2019-05-28T16:25:19.215Z,16.70
2019-05-28T16:29:28.325Z,16.80
2019-05-28T16:33:37.758Z,16.80
2019-05-28T16:37:46.650Z,16.70
2019-05-28T16:41:55.793Z,17.00
2019-05-28T16:46:04.857Z,17.60
2019-05-28T16:50:14.574Z,17.30
2019-05-28T16:54:23.651Z,16.90
2019-05-28T16:58:32.792Z,16.40
2019-05-28T17:02:41.932Z,15.80
2019-05-28T17:06:51.006Z,15.10
2019-05-28T17:11:00.214Z,14.60
2019-05-28T17:15:09.612Z,14.20
2019-05-28T17:19:18.704Z,14.10
2019-05-28T17:23:27.824Z,14.50
2019-05-28T17:27:37.288Z,15.30
2019-05-28T17:31:46.489Z,15.50
2019-05-28T17:35:57.530Z,15.20
2019-05-28T17:40:06.669Z,16.40
2019-05-28T17:44:15.667Z,17.90
2019-05-28T17:48:24.904Z,19.60
2019-05-28T17:52:33.855Z,18.80
2019-05-28T17:56:42.804Z,18.30
2019-05-28T18:00:51.926Z,20.10
2019-05-28T18:05:00.747Z,22.10
2019-05-28T18:09:09.725Z,23.20
2019-05-28T18:13:18.558Z,23.70
2019-05-28T18:17:27.548Z,22.80
2019-05-28T18:21:36.432Z,21.00
2019-05-28T18:25:45.337Z,19.90
2019-05-28T18:29:54.371Z,18.10
2019-05-28T18:34:03.269Z,16.90
2019-05-28T18:38:12.175Z,16.30
2019-05-28T18:42:21.012Z,15.70
2019-05-28T18:46:29.931Z,14.90
2019-05-28T18:50:38.912Z,14.10
2019-05-28T18:54:48.127Z,13.60
2019-05-28T18:58:57.125Z,13.30
2019-05-28T19:03:06.134Z,12.90
2019-05-28T19:07:15.163Z,12.70
2019-05-28T19:11:36.745Z,12.50
2019-05-28T19:15:34.627Z,12.40
2019-05-28T19:19:43.607Z,12.20
2019-05-28T19:23:52.691Z,12.00
2019-05-28T19:28:01.615Z,11.90
2019-05-28T19:32:10.853Z,11.80
2019-05-28T19:36:20.254Z,11.60
2019-05-28T19:40:36.730Z,11.50
2019-05-28T19:44:45.622Z,11.40
2019-05-28T19:48:54.464Z,11.30
2019-05-28T19:53:03.392Z,11.10
2019-05-28T19:57:12.488Z,11.10
2019-05-28T20:01:21.389Z,11.10
2019-05-28T20:05:30.373Z,11.00
2019-05-28T20:09:39.283Z,11.00
2019-05-28T20:13:48.353Z,11.00
2019-05-28T20:17:57.262Z,11.00
2019-05-28T20:22:06.102Z,11.10
2019-05-28T20:26:15.241Z,11.10
2019-05-28T20:30:24.941Z,11.20
2019-05-28T20:34:33.873Z,11.10
2019-05-28T20:38:43.031Z,11.00
2019-05-28T20:42:52.043Z,11.00
2019-05-28T20:47:00.898Z,10.90
2019-05-28T20:51:20.029Z,10.90
2019-05-28T20:55:21.976Z,11.00
2019-05-28T20:59:31.032Z,11.00
2019-05-28T21:03:39.841Z,11.10
2019-05-28T21:07:49.981Z,11.20
2019-05-28T21:11:59.146Z,11.10
2019-05-28T21:16:08.044Z,11.10
2019-05-28T21:20:18.606Z,11.10
2019-05-28T21:24:27.612Z,11.10
2019-05-28T21:28:36.446Z,11.20
2019-05-28T21:32:45.351Z,11.20
2019-05-28T21:36:54.901Z,11.20
2019-05-28T21:41:03.971Z,11.30
2019-05-28T21:45:13.255Z,11.40
2019-05-28T21:49:23.654Z,11.40
2019-05-28T21:53:32.819Z,11.40
2019-05-28T21:57:41.685Z,11.40
2019-05-28T22:01:50.674Z,11.40
2019-05-28T22:05:59.611Z,11.50
2019-05-28T22:10:08.734Z,11.50
2019-05-28T22:14:17.591Z,11.50
2019-05-28T22:18:26.519Z,11.50
2019-05-28T22:22:35.448Z,11.50
2019-05-28T22:26:44.353Z,11.50
2019-05-28T22:30:53.345Z,11.50
2019-05-28T22:35:02.697Z,11.40
2019-05-28T22:39:11.627Z,11.30
2019-05-28T22:43:31.076Z,11.30
2019-05-28T22:47:31.546Z,11.30
2019-05-28T22:51:40.371Z,11.30
2019-05-28T22:55:49.270Z,11.30
2019-05-28T22:59:58.424Z,11.30
2019-05-28T23:04:07.531Z,11.30
2019-05-28T23:08:16.384Z,11.30
2019-05-28T23:12:25.408Z,11.30
2019-05-28T23:16:34.409Z,11.30
2019-05-28T23:20:43.252Z,11.30
2019-05-28T23:24:52.412Z,11.30
2019-05-28T23:29:01.608Z,11.30
2019-05-28T23:33:12.963Z,11.30
2019-05-28T23:37:21.267Z,11.20
2019-05-28T23:41:30.437Z,11.20
2019-05-28T23:45:39.627Z,11.10
2019-05-28T23:49:48.482Z,11.00
2019-05-28T23:53:57.425Z,10.90
2019-05-28T23:58:06.354Z,10.70
